createdAt,value
2018-08-06T00:02:46.722Z,1.60
2018-08-06T00:06:49.936Z,1.63
2018-08-06T00:10:53.237Z,1.40
2018-08-06T00:14:56.626Z,1.37
2018-08-06T00:19:00.170Z,1.50
2018-08-06T00:23:03.283Z,1.30
2018-08-06T00:27:06.395Z,1.43
2018-08-06T00:31:09.491Z,1.50
2018-08-06T00:35:13.150Z,1.70
2018-08-06T00:39:16.254Z,1.50
2018-08-06T00:43:19.366Z,1.40
2018-08-06T00:47:22.477Z,1.57
2018-08-06T00:51:25.646Z,1.80
2018-08-06T00:55:28.758Z,1.40
2018-08-06T00:59:31.890Z,1.43
2018-08-06T01:03:35.175Z,1.57
2018-08-06T01:07:38.954Z,1.70
2018-08-06T01:11:42.466Z,1.50
2018-08-06T01:15:45.580Z,1.70
2018-08-06T01:19:48.694Z,1.87
2018-08-06T01:23:51.814Z,2.00
2018-08-06T01:27:54.926Z,1.57
2018-08-06T01:31:59.667Z,1.47
2018-08-06T01:36:02.774Z,1.70
2018-08-06T01:40:07.970Z,1.77
2018-08-06T01:44:11.125Z,1.60
2018-08-06T01:48:14.240Z,1.77
2018-08-06T01:52:17.361Z,1.53
2018-08-06T01:56:21.758Z,1.90
2018-08-06T02:00:24.898Z,1.50
2018-08-06T02:04:28.011Z,1.40
2018-08-06T02:08:31.130Z,1.57
2018-08-06T02:12:34.217Z,1.73
2018-08-06T02:16:37.325Z,2.07
2018-08-06T02:20:40.429Z,1.70
2018-08-06T02:24:43.531Z,1.63
2018-08-06T02:28:46.655Z,1.80
2018-08-06T02:32:49.755Z,1.70
2018-08-06T02:36:52.872Z,1.90
2018-08-06T02:40:56.382Z,1.73
2018-08-06T02:45:00.574Z,2.00
2018-08-06T02:49:03.871Z,1.80
2018-08-06T02:53:06.980Z,1.90
2018-08-06T02:57:10.110Z,1.93
2018-08-06T03:01:13.309Z,1.87
2018-08-06T03:05:16.886Z,2.27
2018-08-06T03:09:19.985Z,2.30
2018-08-06T03:13:23.103Z,2.43
2018-08-06T03:17:26.210Z,2.27
2018-08-06T03:21:30.758Z,2.20
2018-08-06T03:25:33.881Z,2.13
2018-08-06T03:29:37.009Z,2.10
2018-08-06T03:33:40.114Z,1.70
2018-08-06T03:37:43.230Z,2.33
2018-08-06T03:41:47.264Z,1.97
2018-08-06T03:45:50.401Z,2.10
2018-08-06T03:49:54.330Z,2.60
2018-08-06T03:53:57.451Z,2.27
2018-08-06T03:58:00.554Z,2.60
2018-08-06T04:02:03.685Z,2.30
2018-08-06T04:06:06.850Z,2.30
2018-08-06T04:10:14.149Z,2.50
2018-08-06T04:14:17.264Z,2.60
2018-08-06T04:18:20.355Z,2.30
2018-08-06T04:22:23.482Z,2.63
2018-08-06T04:26:26.588Z,2.97
2018-08-06T04:30:29.707Z,2.50
2018-08-06T04:34:32.815Z,2.67
2018-08-06T04:38:35.917Z,2.77
2018-08-06T04:42:39.195Z,2.50
2018-08-06T04:46:42.540Z,2.90
2018-08-06T04:50:45.884Z,2.80
2018-08-06T04:54:49.235Z,2.73
2018-08-06T04:58:53.201Z,3.03
2018-08-06T05:02:56.538Z,2.80
2018-08-06T05:06:59.951Z,3.60
2018-08-06T05:11:03.323Z,3.27
2018-08-06T05:15:06.731Z,3.27
2018-08-06T05:19:10.033Z,3.63
2018-08-06T05:23:13.392Z,3.17
2018-08-06T05:27:16.735Z,3.30
2018-08-06T05:31:28.350Z,3.67
2018-08-06T05:35:31.695Z,3.03
2018-08-06T05:39:35.023Z,3.00
2018-08-06T05:43:38.984Z,2.80
2018-08-06T05:47:42.336Z,2.73
2018-08-06T05:51:50.007Z,2.70
2018-08-06T05:55:53.344Z,2.40
2018-08-06T05:59:56.686Z,2.60
2018-08-06T06:04:00.412Z,2.40
2018-08-06T06:08:03.788Z,1.97
2018-08-06T06:12:07.200Z,2.07
2018-08-06T06:16:10.558Z,1.90
2018-08-06T06:20:14.333Z,1.60
2018-08-06T06:24:17.687Z,1.97
2018-08-06T06:28:21.175Z,1.60
2018-08-06T06:32:24.522Z,1.60
2018-08-06T06:36:28.120Z,1.63
2018-08-06T06:40:32.336Z,1.67
2018-08-06T06:44:36.293Z,1.60
2018-08-06T06:48:39.696Z,1.80
2018-08-06T06:52:43.032Z,1.50
2018-08-06T06:56:46.786Z,1.40
2018-08-06T07:00:50.135Z,1.87
2018-08-06T07:04:53.969Z,1.60
2018-08-06T07:08:57.343Z,1.50
2018-08-06T07:13:02.304Z,1.40
2018-08-06T07:17:05.691Z,1.60
2018-08-06T07:21:09.054Z,1.43
2018-08-06T07:25:12.768Z,1.50
2018-08-06T07:29:16.107Z,1.53
2018-08-06T07:33:19.450Z,1.37
2018-08-06T07:37:23.353Z,1.40
2018-08-06T07:41:28.091Z,1.47
2018-08-06T07:45:32.258Z,1.50
2018-08-06T07:49:35.727Z,1.50
2018-08-06T07:53:39.006Z,1.30
2018-08-06T07:57:42.370Z,1.30
2018-08-06T08:01:45.721Z,1.53
2018-08-06T08:05:49.086Z,1.30
2018-08-06T08:09:52.479Z,1.43
2018-08-06T08:13:56.139Z,1.30
2018-08-06T08:17:59.485Z,1.70
2018-08-06T08:22:02.846Z,1.20
2018-08-06T08:26:06.224Z,1.50
2018-08-06T08:30:11.353Z,1.30
2018-08-06T08:34:14.743Z,1.40
2018-08-06T08:38:18.602Z,1.67
2018-08-06T08:42:28.759Z,1.60
2018-08-06T08:46:32.370Z,1.53
2018-08-06T08:50:35.773Z,1.60
2018-08-06T08:54:39.111Z,1.30
2018-08-06T08:58:42.545Z,1.30
2018-08-06T09:02:46.935Z,1.30
2018-08-06T09:06:50.242Z,1.33
2018-08-06T09:10:54.623Z,1.30
2018-08-06T09:14:57.951Z,1.73
2018-08-06T09:19:01.329Z,1.43
2018-08-06T09:23:04.673Z,1.57
2018-08-06T09:27:07.996Z,1.30
2018-08-06T09:31:11.329Z,1.30
2018-08-06T09:35:15.201Z,1.50
2018-08-06T09:39:19.166Z,1.50
2018-08-06T09:43:22.598Z,1.50
2018-08-06T09:47:25.956Z,1.57
2018-08-06T09:51:29.338Z,1.40
2018-08-06T09:55:32.720Z,1.63
2018-08-06T09:59:36.089Z,1.50
2018-08-06T10:03:40.291Z,1.20
2018-08-06T10:07:45.373Z,1.17
2018-08-06T10:11:48.850Z,1.22
2018-08-06T10:15:52.167Z,1.50
2018-08-06T10:19:55.520Z,1.20
2018-08-06T10:23:59.171Z,1.37
2018-08-06T10:28:02.664Z,1.40
2018-08-06T10:32:06.037Z,1.50
2018-08-06T10:36:09.806Z,1.45
2018-08-06T10:40:17.372Z,1.40
2018-08-06T10:44:21.496Z,1.42
2018-08-06T10:48:24.991Z,1.50
2018-08-06T10:52:28.309Z,1.27
2018-08-06T10:56:31.652Z,1.57
2018-08-06T11:00:35.038Z,1.60
2018-08-06T11:04:38.429Z,1.55
2018-08-06T11:08:41.798Z,1.60
2018-08-06T11:12:45.155Z,1.40
2018-08-06T11:16:48.503Z,1.37
2018-08-06T11:20:51.871Z,1.57
2018-08-06T11:24:55.215Z,1.40
2018-08-06T11:28:58.566Z,1.40
2018-08-06T11:33:01.661Z,1.52
2018-08-06T11:37:05.028Z,1.42
2018-08-06T11:41:08.395Z,1.40
2018-08-06T11:45:13.895Z,1.40
2018-08-06T11:49:17.248Z,1.50
2018-08-06T11:53:20.584Z,1.30
2018-08-06T11:57:24.149Z,1.40
2018-08-06T12:01:27.540Z,1.47
2018-08-06T12:05:30.874Z,1.47
2018-08-06T12:09:34.204Z,1.55
2018-08-06T12:13:37.594Z,1.15
2018-08-06T12:17:41.548Z,1.07
2018-08-06T12:21:44.895Z,1.40
2018-08-06T12:25:48.602Z,1.30
2018-08-06T12:29:51.942Z,1.25
2018-08-06T12:33:55.334Z,1.65
2018-08-06T12:37:58.670Z,1.30
2018-08-06T12:42:02.132Z,1.30
2018-08-06T12:46:05.933Z,1.32
2018-08-06T12:50:10.544Z,1.30
2018-08-06T12:54:13.878Z,1.37
2018-08-06T12:58:17.220Z,1.30
2018-08-06T13:02:20.721Z,1.40
2018-08-06T13:06:24.166Z,1.00
2018-08-06T13:10:27.535Z,1.32
2018-08-06T13:14:30.882Z,1.30
2018-08-06T13:18:34.262Z,1.47
2018-08-06T13:22:37.618Z,1.40
2018-08-06T13:26:41.015Z,1.22
2018-08-06T13:30:44.334Z,1.50
2018-08-06T13:34:47.692Z,1.27
2018-08-06T13:38:51.094Z,1.47
2018-08-06T13:42:54.410Z,1.32
2018-08-06T13:46:57.899Z,1.40
2018-08-06T13:51:01.132Z,1.50
2018-08-06T13:55:04.718Z,1.22
2018-08-06T13:59:08.168Z,1.32
2018-08-06T14:03:11.487Z,1.85
2018-08-06T14:07:14.829Z,1.20
2018-08-06T14:11:18.243Z,1.20
2018-08-06T14:15:21.627Z,1.07
2018-08-06T14:19:24.966Z,1.40
2018-08-06T14:23:28.312Z,1.20
2018-08-06T14:27:34.656Z,1.50
2018-08-06T14:31:38.030Z,1.20
2018-08-06T14:35:42.275Z,1.30
2018-08-06T14:39:45.732Z,1.35
2018-08-06T14:43:49.115Z,1.10
2018-08-06T14:47:52.472Z,1.27
2018-08-06T14:51:57.043Z,1.45
2018-08-06T14:56:00.481Z,1.10
2018-08-06T15:00:07.775Z,1.15
2018-08-06T15:04:12.283Z,1.10
2018-08-06T15:08:15.940Z,1.30
2018-08-06T15:12:19.396Z,1.10
2018-08-06T15:16:23.207Z,1.20
2018-08-06T15:20:26.711Z,1.00
2018-08-06T15:24:30.080Z,1.10
2018-08-06T15:28:33.638Z,1.35
2018-08-06T15:32:37.135Z,1.00
2018-08-06T15:36:40.639Z,1.12
2018-08-06T15:40:44.370Z,1.00
2018-08-06T15:44:48.399Z,1.20
2018-08-06T15:48:51.872Z,1.27
2018-08-06T15:52:55.275Z,1.10
2018-08-06T15:56:58.992Z,1.30
2018-08-06T16:01:02.742Z,1.25
2018-08-06T16:05:07.032Z,1.25
2018-08-06T16:09:10.444Z,1.20
2018-08-06T16:13:13.929Z,0.90
2018-08-06T16:17:17.549Z,1.17
2018-08-06T16:21:21.097Z,1.05
2018-08-06T16:25:24.815Z,1.00
2018-08-06T16:29:28.244Z,1.30
2018-08-06T16:33:31.615Z,1.32
2018-08-06T16:37:34.981Z,1.15
2018-08-06T16:41:38.643Z,1.27
2018-08-06T16:45:42.047Z,1.10
2018-08-06T16:49:45.691Z,1.07
2018-08-06T16:53:49.172Z,1.10
2018-08-06T16:57:52.818Z,1.07
2018-08-06T17:01:56.253Z,1.17
2018-08-06T17:05:59.750Z,1.32
2018-08-06T17:10:03.352Z,1.30
2018-08-06T17:14:07.063Z,1.15
2018-08-06T17:18:10.583Z,1.30
2018-08-06T17:22:14.011Z,1.25
2018-08-06T17:26:17.436Z,1.37
2018-08-06T17:30:20.947Z,1.10
2018-08-06T17:34:25.255Z,1.12
2018-08-06T17:38:28.835Z,1.12
2018-08-06T17:42:32.232Z,1.30
2018-08-06T17:46:35.775Z,1.30
2018-08-06T17:50:39.660Z,1.07
2018-08-06T17:54:43.095Z,1.40
2018-08-06T17:58:46.605Z,1.20
2018-08-06T18:02:50.123Z,1.42
2018-08-06T18:06:53.458Z,1.30
2018-08-06T18:10:56.835Z,1.27
2018-08-06T18:15:01.562Z,1.67
2018-08-06T18:19:04.704Z,1.30
2018-08-06T18:23:08.065Z,1.32
2018-08-06T18:27:11.443Z,1.30
2018-08-06T18:31:14.892Z,1.25
2018-08-06T18:35:19.337Z,1.20
2018-08-06T18:39:22.699Z,1.35
2018-08-06T18:43:26.097Z,1.45
2018-08-06T18:47:29.997Z,1.10
2018-08-06T18:51:33.859Z,1.72
2018-08-06T18:55:37.376Z,1.60
2018-08-06T18:59:40.764Z,1.37
2018-08-06T19:03:44.135Z,2.15
2018-08-06T19:07:47.567Z,2.00
2018-08-06T19:11:50.945Z,2.00
2018-08-06T19:15:54.316Z,1.72
2018-08-06T19:19:57.696Z,1.77
2018-08-06T19:24:06.440Z,1.70
2018-08-06T19:28:09.815Z,1.80
2018-08-06T19:32:13.176Z,1.75
2018-08-06T19:36:16.527Z,2.20
2018-08-06T19:40:19.891Z,2.00
2018-08-06T19:44:23.239Z,2.02
2018-08-06T19:48:26.599Z,1.32
2018-08-06T19:52:30.036Z,1.37
2018-08-06T19:56:34.428Z,1.32
2018-08-06T20:00:38.180Z,1.80
2018-08-06T20:04:41.631Z,1.77
2018-08-06T20:08:45.052Z,1.80
2018-08-06T20:12:48.410Z,1.75
2018-08-06T20:16:51.870Z,1.87
2018-08-06T20:20:55.366Z,1.82
2018-08-06T20:24:58.735Z,2.33
2018-08-06T20:29:02.564Z,1.90
2018-08-06T20:33:06.455Z,1.70
2018-08-06T20:37:09.839Z,1.57
2018-08-06T20:41:13.204Z,1.60
2018-08-06T20:45:21.097Z,1.62
2018-08-06T20:49:24.430Z,1.32
2018-08-06T20:53:27.771Z,1.40
2018-08-06T20:57:31.169Z,1.20
2018-08-06T21:01:34.627Z,1.73
2018-08-06T21:05:38.031Z,1.30
2018-08-06T21:09:41.430Z,1.40
2018-08-06T21:13:44.792Z,1.30
2018-08-06T21:17:48.272Z,1.50
2018-08-06T21:21:51.784Z,1.43
2018-08-06T21:25:55.110Z,1.27
2018-08-06T21:29:58.458Z,1.40
2018-08-06T21:34:01.879Z,1.67
2018-08-06T21:38:05.278Z,1.27
2018-08-06T21:42:08.668Z,1.30
2018-08-06T21:46:12.031Z,1.47
2018-08-06T21:50:15.766Z,1.40
2018-08-06T21:54:19.577Z,1.37
2018-08-06T21:58:24.917Z,1.30
2018-08-06T22:02:28.501Z,1.80
2018-08-06T22:06:31.838Z,1.47
2018-08-06T22:10:35.232Z,1.50
2018-08-06T22:14:38.744Z,1.20
2018-08-06T22:18:42.246Z,1.60
2018-08-06T22:22:45.683Z,1.70
2018-08-06T22:26:49.011Z,1.30
2018-08-06T22:30:52.362Z,2.10
2018-08-06T22:34:55.861Z,1.60
2018-08-06T22:38:59.205Z,1.60
2018-08-06T22:43:02.542Z,1.77
2018-08-06T22:47:06.366Z,1.70
2018-08-06T22:51:09.805Z,1.47
2018-08-06T22:55:13.673Z,1.30
2018-08-06T22:59:17.070Z,1.40
2018-08-06T23:03:20.763Z,1.20
2018-08-06T23:07:24.103Z,1.57
2018-08-06T23:11:27.559Z,1.30
2018-08-06T23:15:30.891Z,1.43
2018-08-06T23:19:34.058Z,1.33
2018-08-06T23:23:37.531Z,1.43
2018-08-06T23:27:40.862Z,1.50
2018-08-06T23:31:44.380Z,1.20
2018-08-06T23:35:47.740Z,1.50
2018-08-06T23:39:51.686Z,1.50
2018-08-06T23:43:55.308Z,1.80
2018-08-06T23:47:58.655Z,1.67
2018-08-06T23:52:02.001Z,1.73
2018-08-06T23:56:05.477Z,1.50
